メインページ
METAR-TAF:

METAR-TAF

空港 :

プリンストン, ブリティッシュコロンビア州, カナダ

緯度: 49-28N, 経度: 120-31W, 海抜: 700m

現時点の気象観測

当レポートは34分前の20:00(UTC)に作成
無風
気温 2°C
湿度 64%
気圧 1016 hPa
視程: 40.2km
高度3500ftの雲はほとんどない
高度23000ftの雲はほとんどない

METAR: CYDC 152000Z 00000KT 25SM FEW035 FEW230 02/M04 A2999 RMK SC1CI1 SC TR CI TR SLP173

時間: 12:34 (20:34 UTC)


TAF: 見つかりません

4,000以上の空港の気象観測と天気予報(METAR報とTAF報)

利用可能な観測所は地図上に黄色い丸と赤い丸で示す。

丸の上にカーソルを重ねると観測所名を参照できる。

次にクリックすると気象観測と天気予報を参照できる。

マップの切り替え:黒色「×」印の緑ボタンをクリックして拡大、「-」印の緑ボタンをクリックして縮小、緑色の三角印をクリックして隣りの地図に切り替え


METAR-TAF: